Time;durP1;ratioP1;P1;durP2;ratioP2;P2;SDS_P1;SDS_P2;PMS_P1;PMS_P2;Temp;Humidity;BMP_temperature;BMP_pressure;BME280_temperature;BME280_humidity;BME280_pressure;Samples;Min_cycle;Max_cycle;Signal;HPM_P1;HPM_P2
2022/06/30 00:01:33;;;;;;;0.40;0.40;;;15.20;99.90;;;;;;5053737;28;20190;-68
2022/06/30 00:03:59;;;;;;;0.50;0.50;;;15.20;99.90;;;;;;5053716;28;20514;-69
2022/06/30 00:06:25;;;;;;;0.50;0.50;;;15.10;99.90;;;;;;5053498;28;20209;-70
2022/06/30 00:08:52;;;;;;;0.80;0.77;;;15.10;99.90;;;;;;5053301;28;20210;-70
2022/06/30 00:11:18;;;;;;;0.30;0.30;;;15.00;99.90;;;;;;5053499;28;20258;-69
2022/06/30 00:13:44;;;;;;;0.30;0.30;;;15.00;99.90;;;;;;5053552;28;20446;-68
2022/06/30 00:16:10;;;;;;;0.30;0.30;;;15.00;99.90;;;;;;5053324;28;20801;-69
2022/06/30 00:18:36;;;;;;;0.30;0.30;;;15.00;99.90;;;;;;5053335;28;20533;-69
2022/06/30 00:21:03;;;;;;;0.30;0.30;;;15.00;99.90;;;;;;5053357;28;20536;-69
2022/06/30 00:23:29;;;;;;;4.63;2.73;;;15.00;99.90;;;;;;5053387;28;20434;-69
2022/06/30 00:25:55;;;;;;;0.30;0.30;;;15.00;99.90;;;;;;5053236;28;20428;-68
2022/06/30 00:28:21;;;;;;;0.30;0.30;;;15.00;99.90;;;;;;5053161;28;21023;-69
2022/06/30 00:30:47;;;;;;;0.30;0.30;;;15.00;99.90;;;;;;5053324;28;20413;-69
2022/06/30 00:33:13;;;;;;;0.40;0.40;;;15.00;99.90;;;;;;5053408;28;20257;-69
2022/06/30 00:35:39;;;;;;;0.30;0.30;;;15.00;99.90;;;;;;5053157;28;20939;-69
2022/06/30 00:38:05;;;;;;;0.70;0.70;;;14.90;99.90;;;;;;5053078;28;20189;-70
2022/06/30 00:40:38;;;;;;;0.30;0.30;;;14.90;99.90;;;;;;5052009;28;20511;-69
2022/06/30 00:43:04;;;;;;;0.40;0.40;;;14.80;99.90;;;;;;5053400;28;20412;-70
2022/06/30 00:45:30;;;;;;;0.33;0.33;;;14.90;99.90;;;;;;5055801;28;20428;-68
2022/06/30 00:47:57;;;;;;;0.30;0.30;;;14.90;99.90;;;;;;5056872;28;20459;-69
2022/06/30 00:50:23;;;;;;;0.30;0.30;;;14.90;99.90;;;;;;5057026;28;20456;-69
2022/06/30 00:52:52;;;;;;;0.30;0.30;;;14.90;99.90;;;;;;5057078;28;20410;-70
2022/06/30 00:55:19;;;;;;;0.30;0.30;;;15.00;99.90;;;;;;5056867;28;20193;-69
2022/06/30 00:57:45;;;;;;;0.30;0.30;;;15.00;99.90;;;;;;5057566;28;20448;-69
2022/06/30 01:00:13;;;;;;;0.40;0.40;;;15.00;99.90;;;;;;5056840;28;20454;-69
2022/06/30 01:02:39;;;;;;;0.57;0.57;;;15.00;99.90;;;;;;5055520;28;20947;-70
2022/06/30 01:05:06;;;;;;;0.30;0.30;;;15.00;99.90;;;;;;5056717;28;20454;-68
2022/06/30 01:07:33;;;;;;;0.30;0.30;;;15.00;99.90;;;;;;5057040;28;20440;-69
2022/06/30 01:12:47;;;;;;;0.30;0.30;;;15.00;99.90;;;;;;5057102;28;20454;-69
2022/06/30 01:15:19;;;;;;;0.40;0.40;;;15.00;99.90;;;;;;5056828;28;20428;-69
2022/06/30 01:17:46;;;;;;;0.30;0.30;;;15.00;99.90;;;;;;5056892;28;20412;-69
2022/06/30 01:20:12;;;;;;;0.30;0.30;;;15.10;99.90;;;;;;5056402;28;20404;-70
2022/06/30 01:22:38;;;;;;;0.30;0.30;;;15.00;99.90;;;;;;5056677;28;20805;-69
2022/06/30 01:25:05;;;;;;;0.30;0.30;;;15.00;99.90;;;;;;5056740;28;20432;-68
2022/06/30 01:27:31;;;;;;;0.30;0.30;;;14.90;99.90;;;;;;5056257;28;20550;-70
2022/06/30 01:29:58;;;;;;;0.30;0.30;;;14.90;99.90;;;;;;5056174;28;21033;-69
2022/06/30 01:32:25;;;;;;;0.30;0.30;;;14.90;99.90;;;;;;5056531;28;20252;-69
2022/06/30 01:34:52;;;;;;;0.70;0.70;;;14.90;99.90;;;;;;5056105;28;20485;-69
2022/06/30 01:37:17;;;;;;;0.30;0.30;;;15.00;99.90;;;;;;5056187;28;20416;-69
2022/06/30 01:39:43;;;;;;;0.30;0.30;;;14.90;99.90;;;;;;5055910;28;20409;-69
2022/06/30 01:42:09;;;;;;;0.30;0.30;;;14.90;99.90;;;;;;5056302;28;20173;-69
2022/06/30 01:44:34;;;;;;;0.40;0.40;;;14.90;99.90;;;;;;5056304;28;20248;-70
2022/06/30 01:47:00;;;;;;;0.73;0.70;;;14.80;99.90;;;;;;5056056;28;20225;-69
2022/06/30 01:49:26;;;;;;;0.40;0.40;;;14.80;99.90;;;;;;5055903;28;20173;-69
2022/06/30 01:51:51;;;;;;;0.60;0.60;;;14.70;99.90;;;;;;5055926;28;20170;-69
2022/06/30 01:54:17;;;;;;;1.00;1.00;;;14.70;99.90;;;;;;5055988;28;20213;-69
2022/06/30 01:56:43;;;;;;;1.73;1.63;;;14.70;99.90;;;;;;5055601;28;20178;-69
2022/06/30 01:59:08;;;;;;;0.30;0.30;;;14.70;99.90;;;;;;5055657;28;20202;-69
2022/06/30 02:01:35;;;;;;;0.30;0.30;;;14.70;99.90;;;;;;5055848;28;20184;-69
2022/06/30 02:04:46;;;;;;;0.30;0.30;;;14.80;99.90;;;;;;5055814;28;20164;-70
2022/06/30 02:06:47;;;;;;;0.40;0.40;;;14.80;99.90;;;;;;5055310;28;20452;-69
2022/06/30 02:09:13;;;;;;;0.30;0.30;;;14.80;99.90;;;;;;5055454;28;20899;-69
2022/06/30 02:11:39;;;;;;;0.30;0.30;;;14.70;99.90;;;;;;5055577;28;20404;-69
2022/06/30 02:14:04;;;;;;;0.30;0.30;;;14.70;99.90;;;;;;5055588;28;20174;-69
2022/06/30 02:16:30;;;;;;;0.30;0.30;;;14.70;99.90;;;;;;5055380;28;20674;-68
2022/06/30 02:18:56;;;;;;;0.30;0.30;;;14.70;99.90;;;;;;5055529;28;20162;-68
2022/06/30 02:21:22;;;;;;;0.30;0.30;;;14.70;99.90;;;;;;5055517;28;20175;-70
2022/06/30 02:23:48;;;;;;;0.30;0.30;;;14.60;99.90;;;;;;5055291;28;20460;-70
2022/06/30 02:26:13;;;;;;;0.30;0.30;;;14.60;99.90;;;;;;5055215;28;20197;-69
2022/06/30 02:28:39;;;;;;;0.30;0.30;;;14.60;99.90;;;;;;5055153;28;20198;-70
2022/06/30 02:31:04;;;;;;;0.30;0.30;;;14.60;99.90;;;;;;5055356;28;20178;-69
2022/06/30 02:33:30;;;;;;;0.30;0.30;;;14.60;99.90;;;;;;5055274;28;20175;-68
2022/06/30 02:35:56;;;;;;;0.30;0.30;;;14.60;99.90;;;;;;5055041;28;20184;-69
2022/06/30 02:38:21;;;;;;;0.30;0.30;;;14.50;99.90;;;;;;5054880;28;20706;-69
2022/06/30 02:40:47;;;;;;;0.40;0.40;;;14.50;99.90;;;;;;5055049;28;20174;-70
2022/06/30 02:43:13;;;;;;;0.30;0.30;;;14.40;99.90;;;;;;5055023;28;20304;-68
2022/06/30 02:45:38;;;;;;;0.30;0.30;;;14.40;99.90;;;;;;5054907;28;20675;-70
2022/06/30 02:48:04;;;;;;;0.47;0.47;;;14.40;99.90;;;;;;5054580;28;20604;-69
2022/06/30 02:50:30;;;;;;;0.30;0.30;;;14.40;99.90;;;;;;5054947;28;20167;-69
2022/06/30 02:52:55;;;;;;;0.30;0.30;;;14.30;99.90;;;;;;5054747;28;20247;-69
2022/06/30 02:55:21;;;;;;;0.30;0.30;;;14.30;99.90;;;;;;5054595;28;20277;-69
2022/06/30 02:57:47;;;;;;;0.30;0.30;;;14.30;99.90;;;;;;5053318;28;20543;-69
2022/06/30 03:00:14;;;;;;;0.30;0.30;;;14.40;99.90;;;;;;5054552;28;20180;-69
2022/06/30 03:02:40;;;;;;;0.30;0.30;;;14.40;99.90;;;;;;5054694;28;20405;-69
2022/06/30 03:05:07;;;;;;;0.30;0.30;;;14.50;99.90;;;;;;5054274;28;20490;-69
2022/06/30 03:07:33;;;;;;;0.40;0.40;;;14.60;99.90;;;;;;5053666;28;20445;-69
2022/06/30 03:09:59;;;;;;;0.50;0.50;;;14.50;99.90;;;;;;5052962;28;20845;-69
2022/06/30 03:12:24;;;;;;;0.30;0.30;;;14.50;99.90;;;;;;5054417;28;20170;-69
2022/06/30 03:14:50;;;;;;;0.30;0.30;;;14.40;99.90;;;;;;5054300;28;20194;-69
2022/06/30 03:17:16;;;;;;;0.50;0.50;;;14.30;99.90;;;;;;5054411;28;20192;-69
2022/06/30 03:19:41;;;;;;;0.40;0.40;;;14.20;99.90;;;;;;5053989;28;20565;-70
2022/06/30 03:22:07;;;;;;;0.40;0.40;;;14.30;99.90;;;;;;5054395;28;20279;-69
2022/06/30 03:24:33;;;;;;;0.30;0.30;;;14.30;99.90;;;;;;5054172;28;20186;-69
2022/06/30 03:26:58;;;;;;;0.30;0.30;;;14.20;99.90;;;;;;5054415;28;20178;-70
2022/06/30 03:29:24;;;;;;;0.30;0.30;;;14.20;99.90;;;;;;5054049;28;20178;-69
2022/06/30 03:31:50;;;;;;;0.30;0.30;;;14.20;99.90;;;;;;5054014;28;20639;-69
2022/06/30 03:34:15;;;;;;;0.40;0.40;;;14.20;99.90;;;;;;5054077;28;20220;-70
2022/06/30 03:36:41;;;;;;;0.30;0.30;;;14.10;99.90;;;;;;5054180;28;20163;-69
2022/06/30 03:39:08;;;;;;;0.67;0.67;;;14.10;99.90;;;;;;5053825;28;20166;-70
2022/06/30 03:41:33;;;;;;;0.30;0.30;;;14.10;99.90;;;;;;5054091;28;20245;-70
2022/06/30 03:43:59;;;;;;;0.33;0.33;;;14.20;99.90;;;;;;5052733;28;20495;-68
2022/06/30 03:46:25;;;;;;;0.30;0.30;;;14.10;99.90;;;;;;5053666;28;20608;-70
2022/06/30 03:48:50;;;;;;;0.30;0.30;;;14.20;99.90;;;;;;5053499;28;20200;-68
2022/06/30 03:51:16;;;;;;;0.40;0.40;;;14.30;99.90;;;;;;5053645;28;20634;-70
2022/06/30 03:53:42;;;;;;;0.30;0.30;;;14.30;99.90;;;;;;5053771;28;20538;-69
2022/06/30 03:56:07;;;;;;;0.30;0.30;;;14.30;99.90;;;;;;5053589;28;20182;-69
2022/06/30 03:58:34;;;;;;;0.60;0.60;;;14.30;99.90;;;;;;5053667;28;20173;-70
2022/06/30 04:01:00;;;;;;;0.40;0.40;;;14.30;99.90;;;;;;5053821;28;20209;-69
2022/06/30 04:03:25;;;;;;;2.67;2.57;;;14.30;99.90;;;;;;5053734;28;20905;-69
2022/06/30 04:05:51;;;;;;;0.30;0.30;;;14.30;99.90;;;;;;5053492;28;20701;-70
2022/06/30 04:08:17;;;;;;;0.30;0.30;;;14.30;99.90;;;;;;5053266;28;20198;-69
2022/06/30 04:10:43;;;;;;;0.67;0.50;;;14.30;99.90;;;;;;5053548;28;20253;-69
2022/06/30 04:13:08;;;;;;;0.30;0.30;;;14.30;99.90;;;;;;5052298;28;20166;-69
2022/06/30 04:15:34;;;;;;;0.30;0.30;;;14.40;99.90;;;;;;5053567;28;20572;-69
2022/06/30 04:18:00;;;;;;;0.60;0.60;;;14.40;99.90;;;;;;5053010;28;20178;-69
2022/06/30 04:20:25;;;;;;;0.30;0.30;;;14.40;99.90;;;;;;5052181;28;20228;-69
2022/06/30 04:22:52;;;;;;;0.50;0.50;;;14.40;99.90;;;;;;5052121;28;20197;-69
2022/06/30 04:25:19;;;;;;;0.30;0.30;;;14.50;99.90;;;;;;5053229;28;20258;-69
2022/06/30 04:27:48;;;;;;;0.40;0.40;;;14.60;99.90;;;;;;5052008;28;20490;-69
2022/06/30 04:30:15;;;;;;;0.40;0.40;;;15.00;99.90;;;;;;5053251;28;20482;-69
2022/06/30 04:32:41;;;;;;;0.30;0.30;;;15.80;99.90;;;;;;5053407;28;20415;-69
2022/06/30 04:35:11;;;;;;;0.30;0.30;;;16.60;99.90;;;;;;5053163;28;20431;-70
2022/06/30 04:37:38;;;;;;;0.30;0.30;;;17.30;99.90;;;;;;5053161;28;20761;-70
2022/06/30 04:42:49;;;;;;;0.40;0.40;;;18.10;99.90;;;;;;5053204;28;20408;-70
2022/06/30 04:45:15;;;;;;;1.23;1.23;;;18.50;99.90;;;;;;5053161;28;20941;-70
2022/06/30 04:47:41;;;;;;;0.30;0.30;;;18.60;99.90;;;;;;5053074;28;20208;-70
2022/06/30 04:50:08;;;;;;;0.30;0.30;;;18.60;99.50;;;;;;5052994;28;20394;-70
2022/06/30 04:52:34;;;;;;;0.30;0.30;;;18.70;98.80;;;;;;5053280;28;20903;-70
2022/06/30 04:55:00;;;;;;;0.30;0.30;;;19.10;98.90;;;;;;5053102;28;20510;-70
2022/06/30 04:57:26;;;;;;;0.30;0.30;;;19.50;98.30;;;;;;5053015;28;20496;-70
2022/06/30 04:59:52;;;;;;;0.50;0.50;;;19.80;98.50;;;;;;5052750;28;20546;-70
2022/06/30 05:02:17;;;;;;;1.00;0.73;;;19.90;97.50;;;;;;5052909;28;20422;-70
2022/06/30 05:04:43;;;;;;;0.60;0.60;;;19.90;97.10;;;;;;5052837;28;20193;-70
2022/06/30 05:07:10;;;;;;;0.30;0.30;;;20.00;97.40;;;;;;5052820;28;20700;-70
2022/06/30 05:09:35;;;;;;;0.30;0.30;;;20.10;97.10;;;;;;5052898;28;20434;-70
2022/06/30 05:12:01;;;;;;;0.30;0.30;;;20.10;96.70;;;;;;5053068;28;20490;-70
2022/06/30 05:14:27;;;;;;;0.40;0.40;;;20.10;96.30;;;;;;5051705;28;20412;-70
2022/06/30 05:16:52;;;;;;;0.30;0.30;;;20.00;96.80;;;;;;5052847;28;20410;-70
2022/06/30 05:19:18;;;;;;;0.30;0.30;;;20.00;97.30;;;;;;5052714;28;20200;-69
2022/06/30 05:21:44;;;;;;;0.40;0.40;;;20.00;97.50;;;;;;5053016;28;20686;-70
2022/06/30 05:26:53;;;;;;;0.30;0.30;;;20.20;97.40;;;;;;5052787;28;20200;-70
2022/06/30 05:29:19;;;;;;;0.30;0.30;;;20.30;97.60;;;;;;5052494;28;20482;-70
2022/06/30 05:31:44;;;;;;;0.40;0.40;;;20.40;97.40;;;;;;5055454;28;20668;-70
2022/06/30 05:34:10;;;;;;;0.37;0.37;;;20.40;97.80;;;;;;5056271;28;20537;-70
2022/06/30 05:36:36;;;;;;;0.73;0.60;;;20.40;97.30;;;;;;5056692;28;20178;-70
2022/06/30 05:39:02;;;;;;;0.30;0.30;;;20.40;97.10;;;;;;5056170;28;20257;-70
2022/06/30 05:41:27;;;;;;;0.40;0.40;;;20.50;97.30;;;;;;5056347;28;20178;-70
2022/06/30 05:43:53;;;;;;;0.30;0.30;;;20.80;97.30;;;;;;5056119;28;20463;-70
2022/06/30 05:46:19;;;;;;;0.30;0.30;;;21.10;96.60;;;;;;5056005;28;20198;-70
2022/06/30 05:48:44;;;;;;;0.30;0.30;;;21.40;96.50;;;;;;5055724;28;20231;-70
2022/06/30 05:51:10;;;;;;;0.40;0.40;;;21.50;96.60;;;;;;5056082;28;20402;-70
2022/06/30 05:53:36;;;;;;;0.47;0.43;;;21.60;97.30;;;;;;5056148;28;20566;-69
2022/06/30 05:56:01;;;;;;;0.30;0.30;;;21.60;96.80;;;;;;5054729;28;20195;-70
2022/06/30 05:58:27;;;;;;;0.30;0.30;;;21.60;96.50;;;;;;5055662;28;20166;-70
2022/06/30 06:00:53;;;;;;;0.30;0.30;;;21.60;96.40;;;;;;5055845;28;20174;-70
2022/06/30 06:03:18;;;;;;;0.30;0.30;;;21.60;96.80;;;;;;5055837;28;20345;-70
2022/06/30 06:05:44;;;;;;;0.30;0.30;;;21.70;96.40;;;;;;5055626;28;20238;-71
2022/06/30 06:08:12;;;;;;;0.30;0.30;;;22.10;97.20;;;;;;5055616;28;20212;-71
2022/06/30 06:10:38;;;;;;;0.30;0.30;;;22.70;95.80;;;;;;5054497;28;20627;-71
2022/06/30 06:13:05;;;;;;;0.37;0.37;;;23.70;95.60;;;;;;5055576;28;20427;-71
2022/06/30 06:15:31;;;;;;;0.30;0.30;;;24.90;94.20;;;;;;5055601;28;20432;-70
2022/06/30 06:17:57;;;;;;;0.30;0.30;;;25.90;91.80;;;;;;5055257;28;20401;-70
2022/06/30 06:20:22;;;;;;;0.40;0.40;;;26.80;91.80;;;;;;5055520;28;20407;-72
2022/06/30 06:22:48;;;;;;;0.63;0.63;;;28.00;90.00;;;;;;5055606;28;20543;-71
2022/06/30 06:25:15;;;;;;;0.47;0.47;;;29.20;83.10;;;;;;5055267;28;20194;-71
2022/06/30 06:27:41;;;;;;;0.30;0.30;;;30.50;79.30;;;;;;5055234;28;20595;-71
2022/06/30 06:30:09;;;;;;;0.60;0.60;;;31.60;77.00;;;;;;5055037;28;20437;-70
2022/06/30 06:32:36;;;;;;;0.30;0.30;;;32.40;72.20;;;;;;5055272;28;20408;-71
2022/06/30 06:35:03;;;;;;;0.80;0.80;;;33.00;67.60;;;;;;5055080;28;20519;-71
2022/06/30 06:37:28;;;;;;;0.40;0.40;;;33.60;66.10;;;;;;5055256;28;20401;-71
2022/06/30 06:39:54;;;;;;;0.63;0.63;;;33.30;61.30;;;;;;5054834;28;20835;-71
2022/06/30 06:42:20;;;;;;;0.60;0.60;;;33.00;62.70;;;;;;5053798;28;20166;-70
2022/06/30 06:44:47;;;;;;;0.80;0.80;;;32.80;63.60;;;;;;5054950;28;20190;-71
2022/06/30 06:47:14;;;;;;;0.50;0.50;;;32.90;63.20;;;;;;5054825;28;20432;-71
2022/06/30 06:49:41;;;;;;;0.40;0.40;;;33.70;63.20;;;;;;5054786;28;20400;-72
2022/06/30 06:52:07;;;;;;;0.40;0.40;;;35.00;60.00;;;;;;5053639;28;20404;-71
2022/06/30 06:54:32;;;;;;;0.40;0.40;;;36.00;55.80;;;;;;5054675;28;20471;-71
2022/06/30 06:56:58;;;;;;;0.40;0.40;;;35.50;51.90;;;;;;5054724;28;20194;-73
2022/06/30 06:59:24;;;;;;;0.43;0.40;;;34.80;50.60;;;;;;5053313;28;20554;-72
2022/06/30 07:01:50;;;;;;;0.30;0.30;;;33.80;52.20;;;;;;5054730;28;20192;-70
2022/06/30 07:04:15;;;;;;;0.30;0.30;;;33.40;54.30;;;;;;5054636;28;20173;-71
2022/06/30 07:06:41;;;;;;;0.40;0.40;;;34.10;54.30;;;;;;5054366;28;20440;-71
2022/06/30 07:09:06;;;;;;;0.40;0.40;;;35.40;52.50;;;;;;5052969;28;20201;-72
2022/06/30 07:11:32;;;;;;;0.43;0.43;;;36.30;49.20;;;;;;5054455;28;20292;-73
2022/06/30 07:13:58;;;;;;;0.43;0.43;;;36.70;46.60;;;;;;5054425;28;20216;-72
2022/06/30 07:16:23;;;;;;;0.30;0.30;;;36.70;46.00;;;;;;5054395;28;20259;-71
2022/06/30 07:18:49;;;;;;;1.77;1.67;;;36.00;47.30;;;;;;5054152;28;20227;-72
2022/06/30 07:21:15;;;;;;;1.00;1.00;;;36.20;46.40;;;;;;5054312;28;20170;-71
2022/06/30 07:23:42;;;;;;;1.53;1.43;;;36.50;45.40;;;;;;5054396;28;20535;-70
2022/06/30 07:26:08;;;;;;;0.30;0.30;;;35.80;45.00;;;;;;5054137;28;20888;-71
2022/06/30 07:28:34;;;;;;;0.53;0.50;;;34.80;46.70;;;;;;5053872;28;20444;-71
2022/06/30 07:31:00;;;;;;;0.40;0.40;;;33.80;49.30;;;;;;5054047;28;20166;-71
2022/06/30 07:33:26;;;;;;;0.50;0.50;;;33.30;48.70;;;;;;5054149;28;20763;-71
2022/06/30 07:35:51;;;;;;;0.40;0.40;;;32.80;50.40;;;;;;5054119;28;20201;-71
2022/06/30 07:38:17;;;;;;;0.50;0.50;;;33.40;49.50;;;;;;5053767;28;20170;-71
2022/06/30 07:40:42;;;;;;;0.50;0.50;;;33.40;49.10;;;;;;5053934;28;20174;-71
2022/06/30 07:43:08;;;;;;;0.37;0.37;;;33.60;50.20;;;;;;5054072;28;20167;-71
2022/06/30 07:45:34;;;;;;;1.13;1.07;;;34.10;48.10;;;;;;5053803;28;20243;-71
2022/06/30 07:47:59;;;;;;;0.63;0.63;;;34.60;48.20;;;;;;5053769;28;20201;-71
2022/06/30 07:50:25;;;;;;;0.50;0.50;;;35.30;45.90;;;;;;5053886;28;20162;-72
2022/06/30 07:52:52;;;;;;;0.70;0.70;;;35.60;46.20;;;;;;5053402;28;20174;-72
2022/06/30 07:55:18;;;;;;;0.60;0.60;;;34.80;46.90;;;;;;5053587;28;20354;-71
2022/06/30 07:57:46;;;;;;;0.93;0.90;;;35.90;46.40;;;;;;5053753;28;20844;-71
2022/06/30 08:00:13;;;;;;;0.50;0.43;;;37.10;45.80;;;;;;5053587;28;20166;-72
2022/06/30 08:02:38;;;;;;;0.40;0.40;;;38.20;42.10;;;;;;5053795;28;20501;-70
2022/06/30 08:05:05;;;;;;;0.63;0.63;;;39.10;39.90;;;;;;5053483;28;20528;-72
2022/06/30 08:07:31;;;;;;;0.40;0.30;;;39.50;38.90;;;;;;5053478;28;20190;-72
2022/06/30 08:09:57;;;;;;;0.90;0.90;;;38.40;39.70;;;;;;5053347;28;20466;-71
2022/06/30 08:12:22;;;;;;;1.73;0.50;;;38.50;40.20;;;;;;5053536;28;20397;-72
2022/06/30 08:14:48;;;;;;;0.40;0.40;;;39.20;38.90;;;;;;5053474;28;20186;-70
2022/06/30 08:17:14;;;;;;;0.30;0.30;;;39.90;39.10;;;;;;5052146;28;20224;-70
2022/06/30 08:19:41;;;;;;;0.40;0.40;;;38.90;37.00;;;;;;5053213;28;20166;-70
2022/06/30 08:22:07;;;;;;;0.30;0.30;;;38.90;39.40;;;;;;5053807;28;20162;-70
2022/06/30 08:24:32;;;;;;;0.57;0.57;;;40.10;37.80;;;;;;5053295;28;20431;-69
2022/06/30 08:27:02;;;;;;;0.40;0.40;;;41.00;36.40;;;;;;5053596;28;20405;-69
2022/06/30 08:29:28;;;;;;;0.40;0.40;;;41.10;37.50;;;;;;5053234;28;20166;-70
2022/06/30 08:31:54;;;;;;;0.40;0.40;;;40.50;38.30;;;;;;5053494;28;20826;-69
2022/06/30 08:34:19;;;;;;;0.93;0.93;;;39.00;38.60;;;;;;5053403;28;20523;-69
2022/06/30 08:36:45;;;;;;;0.63;0.63;;;39.50;37.70;;;;;;5053675;28;20181;-70
2022/06/30 08:42:02;;;;;;;1.23;1.13;;;38.90;38.10;;;;;;5053090;28;20202;-70
2022/06/30 08:42:03;;;;;;;0.40;0.40;;;38.90;38.60;;;;;;5053280;28;20188;-70
2022/06/30 08:44:32;;;;;;;0.47;0.47;;;40.00;37.60;;;;;;5053195;28;20404;-70
2022/06/30 08:46:58;;;;;;;0.50;0.50;;;40.20;36.00;;;;;;5053088;28;20405;-69
2022/06/30 08:49:25;;;;;;;0.60;0.60;;;40.50;38.70;;;;;;5052986;28;20463;-69
2022/06/30 08:51:54;;;;;;;0.30;0.30;;;41.30;38.40;;;;;;5053171;28;20411;-69
2022/06/30 08:54:21;;;;;;;0.43;0.43;;;41.60;36.40;;;;;;5053096;28;20408;-70
2022/06/30 08:56:50;;;;;;;0.40;0.40;;;42.10;34.80;;;;;;5053195;28;20412;-70
2022/06/30 08:59:16;;;;;;;0.50;0.40;;;42.20;36.30;;;;;;5052878;28;20413;-70
2022/06/30 09:01:43;;;;;;;0.40;0.40;;;42.60;34.20;;;;;;5052970;28;20500;-69
2022/06/30 09:04:12;;;;;;;0.40;0.40;;;41.80;35.40;;;;;;5053013;28;20419;-70
2022/06/30 09:06:42;;;;;;;0.40;0.40;;;41.90;34.50;;;;;;5055570;28;20436;-69
2022/06/30 09:09:07;;;;;;;0.40;0.30;;;41.60;32.60;;;;;;5056549;28;20463;-70
2022/06/30 09:11:57;;;;;;;0.30;0.30;;;40.90;33.40;;;;;;5056907;28;20453;-69
2022/06/30 09:14:33;;;;;;;0.40;0.40;;;40.60;33.50;;;;;;5051207;28;20568;-70
2022/06/30 09:16:59;;;;;;;0.40;0.40;;;40.10;34.10;;;;;;5056624;28;20499;-70
2022/06/30 09:19:25;;;;;;;3.90;0.50;;;39.70;33.50;;;;;;5056410;28;20416;-69
2022/06/30 09:22:24;;;;;;;1.00;0.90;;;39.90;34.30;;;;;;5056706;28;20462;-70
2022/06/30 09:25:20;;;;;;;0.60;0.60;;;39.60;38.50;;;;;;5056457;28;20198;-69
2022/06/30 09:27:47;;;;;;;0.30;0.30;;;39.80;35.60;;;;;;5056382;28;20448;-70
2022/06/30 09:30:21;;;;;;;0.57;0.57;;;39.90;32.80;;;;;;5056376;28;20408;-69
2022/06/30 09:32:57;;;;;;;0.40;0.40;;;39.60;35.80;;;;;;5056094;28;20417;-69
2022/06/30 09:35:29;;;;;;;0.40;0.40;;;38.80;31.80;;;;;;5054958;28;20928;-69
2022/06/30 09:37:58;;;;;;;1.23;0.60;;;38.10;33.30;;;;;;5056285;28;20447;-69
2022/06/30 09:40:29;;;;;;;0.33;0.30;;;37.80;35.40;;;;;;5056388;28;20413;-69
2022/06/30 09:42:55;;;;;;;0.30;0.30;;;38.00;37.20;;;;;;5056353;28;20778;-70
2022/06/30 09:45:37;;;;;;;0.63;0.63;;;38.40;38.90;;;;;;5056249;28;20519;-70
2022/06/30 09:48:03;;;;;;;0.40;0.40;;;38.60;36.40;;;;;;5056107;28;20202;-69
2022/06/30 09:50:29;;;;;;;0.83;0.83;;;39.10;37.10;;;;;;5056105;28;20813;-69
2022/06/30 09:53:13;;;;;;;0.40;0.40;;;37.80;36.60;;;;;;5056107;28;20405;-69
2022/06/30 09:55:41;;;;;;;0.40;0.30;;;37.10;39.50;;;;;;5055890;28;20677;-69
2022/06/30 09:58:08;;;;;;;0.57;0.50;;;37.20;38.10;;;;;;5055636;28;20417;-70
2022/06/30 10:00:45;;;;;;;0.93;0.40;;;37.50;37.50;;;;;;5056065;28;20523;-69
2022/06/30 10:03:11;;;;;;;0.47;0.47;;;37.50;40.20;;;;;;5055862;28;20407;-69
2022/06/30 10:05:38;;;;;;;0.87;0.87;;;37.90;39.10;;;;;;5055579;28;20448;-69
2022/06/30 10:08:05;;;;;;;0.97;0.97;;;38.00;37.50;;;;;;5055347;28;20542;-72
2022/06/30 10:10:31;;;;;;;0.40;0.30;;;37.70;38.10;;;;;;5055617;28;20492;-71
2022/06/30 10:12:57;;;;;;;0.50;0.40;;;37.60;38.70;;;;;;5055627;28;20393;-71
2022/06/30 10:15:24;;;;;;;0.47;0.40;;;36.70;39.60;;;;;;5055683;28;20428;-71
2022/06/30 10:17:54;;;;;;;0.50;0.50;;;36.70;40.20;;;;;;5055220;28;20797;-72
2022/06/30 10:20:20;;;;;;;0.40;0.40;;;36.20;41.30;;;;;;5055477;28;20494;-72
2022/06/30 10:22:47;;;;;;;0.67;0.67;;;36.50;42.50;;;;;;5055569;28;20932;-72
2022/06/30 10:25:13;;;;;;;0.40;0.40;;;36.20;39.50;;;;;;5055298;28;20435;-72
2022/06/30 10:27:39;;;;;;;0.40;0.40;;;35.90;41.30;;;;;;5055299;28;20506;-72
2022/06/30 10:30:11;;;;;;;0.40;0.30;;;35.70;40.00;;;;;;5055439;28;20413;-71
2022/06/30 10:32:43;;;;;;;0.40;0.40;;;35.50;40.00;;;;;;5055551;28;20219;-71
2022/06/30 10:35:22;;;;;;;1.33;1.23;;;35.10;42.50;;;;;;5055261;28;20436;-72
2022/06/30 10:37:56;;;;;;;1.43;1.40;;;34.80;41.00;;;;;;5055316;28;20412;-72
2022/06/30 10:40:36;;;;;;;0.40;0.30;;;34.20;42.00;;;;;;5055453;28;20487;-72
2022/06/30 10:43:02;;;;;;;0.60;0.60;;;33.80;41.90;;;;;;5055270;28;20851;-71
2022/06/30 10:45:30;;;;;;;0.40;0.40;;;33.50;45.80;;;;;;5054873;28;20929;-72
2022/06/30 10:48:06;;;;;;;0.50;0.50;;;33.60;44.30;;;;;;5054628;28;20462;-72
2022/06/30 10:50:36;;;;;;;0.50;0.50;;;33.60;43.40;;;;;;5054854;28;20443;-72
2022/06/30 10:53:04;;;;;;;0.30;0.30;;;33.30;44.00;;;;;;5054947;28;20965;-71
2022/06/30 10:55:59;;;;;;;0.40;0.40;;;32.80;45.50;;;;;;5054787;28;20438;-72
2022/06/30 10:58:25;;;;;;;0.50;0.50;;;32.30;46.40;;;;;;5054545;28;20397;-72
2022/06/30 11:00:59;;;;;;;0.50;0.50;;;31.90;48.40;;;;;;5054991;28;20826;-72
2022/06/30 11:05:59;;;;;;;0.50;0.50;;;31.80;49.90;;;;;;5054461;28;20456;-72
2022/06/30 11:08:47;;;;;;;0.30;0.30;;;31.70;52.40;;;;;;5054225;28;20915;-72
2022/06/30 11:11:25;;;;;;;0.50;0.50;;;31.60;48.10;;;;;;5054754;28;20753;-71
2022/06/30 11:14:03;;;;;;;0.57;0.57;;;31.40;51.30;;;;;;5054541;28;20404;-72
2022/06/30 11:16:34;;;;;;;0.40;0.40;;;31.10;46.00;;;;;;5053078;28;20437;-72
2022/06/30 11:19:00;;;;;;;0.83;0.50;;;31.10;48.00;;;;;;5053932;28;20409;-72
2022/06/30 11:21:30;;;;;;;0.40;0.40;;;31.00;48.80;;;;;;5054497;28;20419;-71
2022/06/30 11:24:00;;;;;;;1.23;0.80;;;31.00;52.40;;;;;;5054647;28;20444;-71
2022/06/30 11:29:17;;;;;;;0.60;0.60;;;31.30;49.30;;;;;;5053335;28;20509;-72
2022/06/30 11:31:43;;;;;;;0.30;0.30;;;31.20;49.50;;;;;;5054083;28;20935;-71
2022/06/30 11:34:15;;;;;;;1.43;1.43;;;31.10;50.00;;;;;;5054098;28;20801;-72
2022/06/30 11:36:43;;;;;;;1.57;1.07;;;30.90;49.30;;;;;;5054163;28;20451;-72
2022/06/30 11:39:14;;;;;;;0.40;0.40;;;30.70;48.60;;;;;;5053779;28;20417;-71
2022/06/30 11:44:40;;;;;;;2.73;1.17;;;30.40;47.60;;;;;;5054346;28;20400;-72
2022/06/30 11:47:12;;;;;;;0.50;0.40;;;30.30;49.80;;;;;;5052681;28;20423;-72
2022/06/30 11:49:41;;;;;;;0.40;0.40;;;30.30;50.00;;;;;;5053787;28;20392;-73
2022/06/30 11:52:21;;;;;;;0.30;0.30;;;30.40;50.90;;;;;;5053912;28;20396;-71
2022/06/30 11:54:52;;;;;;;0.43;0.43;;;30.30;49.50;;;;;;5053626;28;20413;-71
2022/06/30 11:57:20;;;;;;;0.37;0.33;;;30.20;49.20;;;;;;5052467;28;20403;-72
2022/06/30 11:59:47;;;;;;;1.20;1.20;;;30.00;51.00;;;;;;5053568;28;20399;-71
2022/06/30 12:02:14;;;;;;;0.37;0.37;;;29.90;53.60;;;;;;5053573;28;20431;-71
2022/06/30 12:04:41;;;;;;;1.43;0.97;;;29.60;51.40;;;;;;5054181;28;20420;-71
2022/06/30 12:07:09;;;;;;;0.40;0.40;;;29.40;52.80;;;;;;5053555;28;20433;-71
2022/06/30 12:09:35;;;;;;;1.00;1.00;;;29.40;53.10;;;;;;5053390;28;20409;-72
2022/06/30 12:12:03;;;;;;;0.40;0.40;;;29.50;53.40;;;;;;5053572;28;20392;-71
2022/06/30 12:14:34;;;;;;;0.73;0.73;;;29.80;52.20;;;;;;5053517;28;20755;-71
2022/06/30 12:17:00;;;;;;;0.57;0.57;;;29.80;53.30;;;;;;5053525;28;20385;-71
2022/06/30 12:19:25;;;;;;;0.57;0.57;;;29.80;52.70;;;;;;5053231;28;20400;-71
2022/06/30 12:21:54;;;;;;;0.40;0.40;;;29.90;51.30;;;;;;5053339;28;20446;-71
2022/06/30 12:24:23;;;;;;;0.40;0.40;;;30.10;50.80;;;;;;5053460;28;20162;-72
2022/06/30 12:26:53;;;;;;;0.37;0.37;;;30.30;50.90;;;;;;5053294;28;20778;-72
2022/06/30 12:29:20;;;;;;;0.60;0.60;;;30.60;48.10;;;;;;5053040;28;20452;-72
2022/06/30 12:32:02;;;;;;;0.63;0.63;;;30.50;44.70;;;;;;5053461;28;20519;-72
2022/06/30 12:34:29;;;;;;;0.87;0.87;;;30.30;46.80;;;;;;5053189;28;20730;-71
2022/06/30 12:37:02;;;;;;;0.50;0.40;;;30.30;50.50;;;;;;5052952;28;20435;-72
2022/06/30 12:39:31;;;;;;;0.40;0.40;;;30.70;49.10;;;;;;5054088;28;20803;-71
2022/06/30 12:42:05;;;;;;;0.30;0.30;;;30.90;47.00;;;;;;5057526;28;20443;-71
2022/06/30 12:44:36;;;;;;;2.10;2.00;;;31.00;47.40;;;;;;5057849;28;20905;-72
2022/06/30 12:47:10;;;;;;;0.50;0.50;;;30.70;46.30;;;;;;5057406;28;20897;-71
2022/06/30 12:49:37;;;;;;;0.70;0.70;;;30.30;46.50;;;;;;5057058;28;20444;-71
2022/06/30 12:52:17;;;;;;;0.40;0.40;;;30.10;47.70;;;;;;5055699;28;20929;-71
2022/06/30 12:54:56;;;;;;;0.87;0.60;;;30.00;48.60;;;;;;5057171;28;20427;-72
2022/06/30 12:57:23;;;;;;;0.40;0.40;;;30.00;48.60;;;;;;5057085;28;20400;-72
2022/06/30 12:59:56;;;;;;;0.30;0.30;;;29.90;48.30;;;;;;5056917;28;20400;-70
2022/06/30 13:02:39;;;;;;;0.40;0.40;;;29.80;47.50;;;;;;5057035;28;20893;-71
2022/06/30 13:05:09;;;;;;;0.30;0.30;;;29.70;47.30;;;;;;5056915;28;20813;-72
2022/06/30 13:07:35;;;;;;;0.30;0.30;;;29.60;46.90;;;;;;5057004;28;20451;-71